Terminal Aerodrome Forecast
Issued by NWS

Home | Current Version | Previous Version | Text Only | Print | Product List | Glossary On
Versions: 1 2 3 4 5 6 7 8 9 10 11 12 13 14
299
FTUS43 KTOP 232320
TAFFOE
TAF
KFOE 232320Z 2400/2424 17007KT P6SM BKN150
     FM240500 20006KT P6SM BKN150
     FM241400 26007KT P6SM SCT150 PROB30 2420/2424 6SM -TSRA
      SCT070CB BKN150=

USA.gov is the U.S. government's official web portal to all federal, state and local government web resources and services.